Terminal Aerodrome Forecast
Issued by NWS

Home | Current Version | Previous Version | Text Only | Print | Product List | Glossary On
Versions: 1 2 3 4 5 6 7 8 9 10 11 12 13 14 15 16 17 18 19 20 21
007
FTUS42 KTAE 052359 CCB
TAFDHN
TAF COR
KDHN 052359Z 0500/0524 14010KT 3SM +RA OVC015
      TEMPO 0500/0502 2SM TSRA OVC010CB
     FM050300 18005KT 2SM -RA BR OVC004
     FM051400 10004KT P6SM -SHRA BKN007
     FM052000 09005KT 4SM RA VCTS OVC010CB=

USA.gov is the U.S. government's official web portal to all federal, state and local government web resources and services.